createdAt,value
2022-09-06T00:01:10.931Z,64.69
2022-09-06T00:03:38.654Z,64.29
2022-09-06T00:06:11.162Z,64.22
2022-09-06T00:08:40.542Z,64.50
2022-09-06T00:11:08.500Z,65.72
2022-09-06T00:13:36.548Z,65.60
2022-09-06T00:16:08.959Z,65.30
2022-09-06T00:18:37.138Z,65.70
2022-09-06T00:21:05.140Z,66.05
2022-09-06T00:23:33.106Z,66.23
2022-09-06T00:26:06.235Z,66.54
2022-09-06T00:28:33.894Z,66.42
2022-09-06T00:31:09.527Z,66.75
2022-09-06T00:33:37.383Z,65.84
2022-09-06T00:36:05.492Z,66.29
2022-09-06T00:38:33.517Z,67.31
2022-09-06T00:41:01.178Z,67.67
2022-09-06T00:43:30.373Z,66.53
2022-09-06T00:45:58.558Z,66.34
2022-09-06T00:48:26.649Z,66.22
2022-09-06T00:50:56.779Z,65.93
2022-09-06T00:53:25.031Z,65.72
2022-09-06T00:55:53.016Z,65.03
2022-09-06T00:58:20.888Z,65.32
2022-09-06T01:00:50.214Z,65.41
2022-09-06T01:03:19.084Z,65.45
2022-09-06T01:05:54.692Z,66.03
2022-09-06T01:08:31.641Z,65.78
2022-09-06T01:11:08.644Z,65.30
2022-09-06T01:13:46.381Z,65.67
2022-09-06T01:16:22.604Z,66.29
2022-09-06T01:19:00.993Z,65.44
2022-09-06T01:21:40.781Z,65.42
2022-09-06T01:24:33.788Z,65.92
2022-09-06T01:27:35.569Z,67.15
2022-09-06T01:30:09.301Z,67.46
2022-09-06T01:32:43.573Z,67.25
2022-09-06T01:35:17.029Z,67.06
2022-09-06T01:37:44.808Z,66.57
2022-09-06T01:40:12.660Z,66.21
2022-09-06T01:42:41.569Z,67.23
2022-09-06T01:45:13.814Z,67.06
2022-09-06T01:47:42.373Z,67.36
2022-09-06T01:50:24.477Z,66.70
2022-09-06T01:52:59.788Z,66.59
2022-09-06T01:55:32.200Z,66.91
2022-09-06T01:58:16.043Z,66.74
2022-09-06T02:00:49.130Z,66.59
2022-09-06T02:03:21.496Z,66.58
2022-09-06T02:05:52.459Z,66.80
2022-09-06T02:08:25.423Z,66.63
2022-09-06T02:10:56.771Z,66.50
2022-09-06T02:13:25.498Z,66.29
2022-09-06T02:15:57.884Z,65.77
2022-09-06T02:18:29.800Z,65.84
2022-09-06T02:20:59.368Z,65.64
2022-09-06T02:23:31.030Z,64.84
2022-09-06T02:26:00.896Z,65.70
2022-09-06T02:28:29.036Z,65.28
2022-09-06T02:31:07.971Z,66.09
2022-09-06T02:33:36.459Z,66.12
2022-09-06T02:36:06.875Z,66.24
2022-09-06T02:38:35.692Z,66.16
2022-09-06T02:41:04.562Z,66.10
2022-09-06T02:43:32.260Z,66.54
2022-09-06T02:45:59.999Z,66.31
2022-09-06T02:48:29.149Z,66.22
2022-09-06T02:50:56.808Z,66.32
2022-09-06T02:53:24.472Z,66.28
2022-09-06T02:55:52.210Z,66.66
2022-09-06T02:58:19.929Z,66.27
2022-09-06T03:00:47.934Z,66.14
2022-09-06T03:03:16.202Z,65.82
2022-09-06T03:05:47.982Z,65.77
2022-09-06T03:08:15.641Z,66.07
2022-09-06T03:10:49.664Z,66.76
2022-09-06T03:13:17.458Z,66.79
2022-09-06T03:15:45.147Z,66.36
2022-09-06T03:18:13.315Z,66.10
2022-09-06T03:20:41.278Z,65.60
2022-09-06T03:23:11.057Z,66.02
2022-09-06T03:25:38.825Z,66.39
2022-09-06T03:28:06.567Z,66.47
2022-09-06T03:30:34.276Z,66.31
2022-09-06T03:33:03.085Z,66.47
2022-09-06T03:35:30.822Z,66.50
2022-09-06T03:37:58.518Z,66.70
2022-09-06T03:40:27.717Z,66.12
2022-09-06T03:42:55.418Z,66.20
2022-09-06T03:45:23.110Z,66.10
2022-09-06T03:47:50.850Z,66.27
2022-09-06T03:50:18.588Z,66.41
2022-09-06T03:52:46.298Z,65.76
2022-09-06T03:55:14.051Z,66.87
2022-09-06T03:57:43.297Z,67.89
2022-09-06T04:00:12.118Z,68.96
2022-09-06T04:02:39.996Z,68.72
2022-09-06T04:05:08.322Z,67.85
2022-09-06T04:07:37.924Z,67.74
2022-09-06T04:10:07.542Z,68.42
2022-09-06T04:12:35.407Z,67.98
2022-09-06T04:15:04.800Z,67.55
2022-09-06T04:17:32.602Z,67.41
2022-09-06T04:20:00.327Z,67.49
2022-09-06T04:22:28.002Z,67.99
2022-09-06T04:24:55.682Z,67.78
2022-09-06T04:27:23.714Z,68.29
2022-09-06T04:29:51.525Z,68.83
2022-09-06T04:32:20.586Z,69.46
2022-09-06T04:34:48.252Z,70.12
2022-09-06T04:37:19.982Z,70.27
2022-09-06T04:39:47.975Z,69.77
2022-09-06T04:42:15.991Z,69.44
2022-09-06T04:44:43.930Z,68.42
2022-09-06T04:47:15.363Z,68.15
2022-09-06T04:49:44.435Z,67.87
2022-09-06T04:52:12.287Z,67.61
2022-09-06T04:54:40.122Z,67.20
2022-09-06T04:57:07.998Z,66.78
2022-09-06T04:59:35.715Z,66.67
2022-09-06T05:02:03.619Z,66.76
2022-09-06T05:04:31.395Z,67.34
2022-09-06T05:07:04.723Z,66.68
2022-09-06T05:09:32.547Z,67.33
2022-09-06T05:12:00.978Z,67.25
2022-09-06T05:14:29.506Z,67.03
2022-09-06T05:16:57.291Z,66.85
2022-09-06T05:19:25.061Z,66.65
2022-09-06T05:21:53.352Z,66.61
2022-09-06T05:24:22.370Z,66.72
2022-09-06T05:26:50.312Z,67.13
2022-09-06T05:29:18.043Z,67.96
2022-09-06T05:31:45.793Z,67.57
2022-09-06T05:34:15.029Z,67.27
2022-09-06T05:36:42.894Z,66.94
2022-09-06T05:39:10.529Z,66.89
2022-09-06T05:41:39.587Z,66.54
2022-09-06T05:44:07.355Z,66.52
2022-09-06T05:46:34.991Z,66.34
2022-09-06T05:49:07.818Z,66.28
2022-09-06T05:51:35.503Z,66.04
2022-09-06T05:54:03.179Z,64.50
2022-09-06T05:56:30.918Z,64.79
2022-09-06T05:58:59.890Z,64.59
2022-09-06T06:01:29.387Z,64.18
2022-09-06T06:03:59.004Z,63.78
2022-09-06T06:06:28.474Z,64.02
2022-09-06T06:08:56.588Z,63.34
2022-09-06T06:11:26.000Z,62.86
2022-09-06T06:13:55.268Z,61.94
2022-09-06T06:16:25.403Z,62.18
2022-09-06T06:18:53.303Z,61.44
2022-09-06T06:21:22.577Z,59.58
2022-09-06T06:23:52.890Z,59.77
2022-09-06T06:26:21.107Z,58.66
2022-09-06T06:28:49.764Z,58.72
2022-09-06T06:31:17.587Z,58.17
2022-09-06T06:33:46.768Z,57.99
2022-09-06T06:36:22.562Z,58.18
2022-09-06T06:38:51.852Z,57.46
2022-09-06T06:41:21.444Z,57.15
2022-09-06T06:43:49.173Z,56.58
2022-09-06T06:46:19.063Z,55.73
2022-09-06T06:48:51.563Z,55.61
2022-09-06T06:51:23.807Z,54.85
2022-09-06T06:53:51.695Z,53.92
2022-09-06T06:56:20.979Z,54.36
2022-09-06T06:58:50.180Z,53.50
2022-09-06T07:01:18.677Z,53.26
2022-09-06T07:03:48.089Z,52.89
2022-09-06T07:06:16.700Z,53.74
2022-09-06T07:08:47.656Z,52.48
2022-09-06T07:11:17.820Z,52.23
2022-09-06T07:13:46.617Z,52.12
2022-09-06T07:16:16.385Z,51.81
2022-09-06T07:18:45.895Z,51.53
2022-09-06T07:24:06.358Z,50.12
2022-09-06T07:26:36.229Z,49.82
2022-09-06T07:29:05.578Z,49.74
2022-09-06T07:34:22.112Z,48.77
2022-09-06T07:36:53.109Z,48.19
2022-09-06T07:39:23.150Z,46.99
2022-09-06T07:41:50.981Z,47.03
2022-09-06T07:44:18.629Z,47.82
2022-09-06T07:46:46.413Z,47.99
2022-09-06T07:49:14.222Z,48.33
2022-09-06T07:51:41.962Z,48.09
2022-09-06T07:54:29.918Z,48.37
2022-09-06T07:56:58.700Z,47.26
2022-09-06T07:59:27.485Z,46.71
2022-09-06T08:01:55.208Z,46.64
2022-09-06T08:04:22.987Z,46.92
2022-09-06T08:09:41.300Z,46.25
2022-09-06T08:12:09.604Z,45.28
2022-09-06T08:14:37.369Z,45.85
2022-09-06T08:17:05.572Z,45.06
2022-09-06T08:19:36.588Z,44.37
2022-09-06T08:22:04.542Z,43.87
2022-09-06T08:24:35.896Z,42.23
2022-09-06T08:27:07.791Z,42.02
2022-09-06T08:29:35.655Z,42.07
2022-09-06T08:32:03.824Z,41.69
2022-09-06T08:34:31.563Z,41.58
2022-09-06T08:36:59.207Z,42.26
2022-09-06T08:39:27.742Z,40.83
2022-09-06T08:41:57.834Z,40.45
2022-09-06T08:47:18.246Z,40.98
2022-09-06T08:49:47.393Z,39.93
2022-09-06T08:52:28.354Z,40.88
2022-09-06T08:55:05.047Z,40.33
2022-09-06T08:57:45.818Z,40.76
2022-09-06T09:00:16.320Z,39.46
2022-09-06T09:02:45.918Z,39.30
2022-09-06T09:05:24.451Z,39.05
2022-09-06T09:08:01.005Z,38.58
2022-09-06T09:10:30.661Z,38.57
2022-09-06T09:12:58.747Z,38.69
2022-09-06T09:15:28.810Z,38.48
2022-09-06T09:17:56.872Z,38.21
2022-09-06T09:20:24.786Z,37.32
2022-09-06T09:22:52.447Z,37.64
2022-09-06T09:25:23.283Z,37.54
2022-09-06T09:27:57.853Z,36.46
2022-09-06T09:33:28.457Z,36.28
2022-09-06T09:35:57.164Z,36.79
2022-09-06T09:38:27.627Z,36.70
2022-09-06T09:40:57.468Z,36.23
2022-09-06T09:43:26.612Z,35.62
2022-09-06T09:46:16.835Z,36.35
2022-09-06T09:48:49.663Z,36.23
2022-09-06T09:51:26.342Z,36.25
2022-09-06T09:53:56.491Z,35.59
2022-09-06T09:56:30.434Z,35.69
2022-09-06T09:58:59.222Z,35.67
2022-09-06T10:01:33.750Z,35.00
2022-09-06T10:07:08.141Z,34.86
2022-09-06T10:09:38.086Z,34.72
2022-09-06T10:12:06.458Z,35.06
2022-09-06T10:14:41.265Z,35.02
2022-09-06T10:17:19.670Z,34.96
2022-09-06T10:19:48.756Z,34.72
2022-09-06T10:22:28.414Z,34.62
2022-09-06T10:25:26.571Z,34.21
2022-09-06T10:28:23.895Z,34.27
2022-09-06T10:31:17.115Z,34.19
2022-09-06T10:33:57.530Z,34.00
2022-09-06T10:36:30.025Z,32.92
2022-09-06T10:39:03.643Z,34.25
2022-09-06T10:41:49.439Z,33.79
2022-09-06T10:44:27.841Z,33.91
2022-09-06T10:47:01.107Z,34.55
2022-09-06T10:49:30.247Z,35.70
2022-09-06T10:51:59.622Z,33.89
2022-09-06T10:54:27.396Z,34.21
2022-09-06T10:56:58.780Z,33.20
2022-09-06T10:59:36.265Z,34.48
2022-09-06T11:02:14.180Z,33.94
2022-09-06T11:07:35.287Z,34.21
2022-09-06T11:10:10.050Z,33.76
2022-09-06T11:12:41.298Z,33.42
2022-09-06T11:15:13.610Z,34.16
2022-09-06T11:17:46.760Z,33.74
2022-09-06T11:20:20.099Z,34.13
2022-09-06T11:23:10.376Z,33.35
2022-09-06T11:25:59.889Z,33.30
2022-09-06T11:28:32.866Z,32.09
2022-09-06T11:31:01.184Z,32.65
2022-09-06T11:33:30.596Z,32.18
2022-09-06T11:36:19.516Z,32.46
2022-09-06T11:38:56.303Z,33.39
2022-09-06T11:41:29.862Z,32.87
2022-09-06T11:43:57.710Z,32.54
2022-09-06T11:47:00.353Z,32.23
2022-09-06T11:49:41.359Z,32.86
2022-09-06T11:52:59.283Z,31.90
2022-09-06T11:55:35.940Z,31.93
2022-09-06T11:58:05.980Z,31.51
2022-09-06T12:00:33.898Z,32.06
2022-09-06T12:06:15.071Z,32.31
2022-09-06T12:08:43.620Z,32.19
2022-09-06T12:11:30.357Z,31.37
2022-09-06T12:14:03.087Z,30.90
2022-09-06T12:17:08.909Z,30.70
2022-09-06T12:19:44.375Z,30.85
2022-09-06T12:22:53.514Z,30.91
2022-09-06T12:25:53.227Z,30.69
2022-09-06T12:28:34.672Z,30.83
2022-09-06T12:31:03.418Z,30.84
2022-09-06T12:33:32.953Z,31.56
2022-09-06T12:36:14.552Z,31.61
2022-09-06T12:38:55.184Z,30.81
2022-09-06T12:41:24.136Z,30.31
2022-09-06T12:43:55.792Z,31.41
2022-09-06T12:46:25.086Z,31.59
2022-09-06T12:49:08.028Z,30.70
2022-09-06T12:51:36.331Z,31.25
2022-09-06T12:54:05.671Z,30.54
2022-09-06T12:56:35.284Z,30.08
2022-09-06T12:59:19.268Z,30.26
2022-09-06T13:01:52.308Z,30.66
2022-09-06T13:04:27.450Z,29.47
2022-09-06T13:06:55.639Z,31.05
2022-09-06T13:09:26.934Z,31.25
2022-09-06T13:11:57.859Z,30.39
2022-09-06T13:14:29.337Z,29.90
2022-09-06T13:16:57.968Z,29.33
2022-09-06T13:19:33.785Z,29.29
2022-09-06T13:22:03.996Z,29.67
2022-09-06T13:24:46.831Z,29.27
2022-09-06T13:27:25.827Z,28.54
2022-09-06T13:29:59.440Z,27.64
2022-09-06T13:32:28.793Z,28.65
2022-09-06T13:34:58.671Z,27.74
2022-09-06T13:37:28.394Z,27.95
2022-09-06T13:39:57.580Z,28.10
2022-09-06T13:42:28.417Z,28.38
2022-09-06T13:45:01.920Z,28.18
2022-09-06T13:47:30.380Z,27.91
2022-09-06T13:49:58.097Z,27.67
2022-09-06T13:52:25.943Z,26.99
2022-09-06T13:54:53.944Z,27.04
2022-09-06T13:57:24.470Z,27.43
2022-09-06T13:59:52.561Z,26.96
2022-09-06T14:02:21.750Z,27.36
2022-09-06T14:04:49.665Z,28.28
2022-09-06T14:07:17.724Z,28.04
2022-09-06T14:09:45.876Z,28.90
2022-09-06T14:12:13.812Z,28.42
2022-09-06T14:14:41.861Z,28.77
2022-09-06T14:17:09.808Z,27.55
2022-09-06T14:19:41.658Z,27.84
2022-09-06T14:22:09.389Z,28.18
2022-09-06T14:24:37.094Z,27.70
2022-09-06T14:27:07.541Z,27.77
2022-09-06T14:29:35.663Z,27.91
2022-09-06T14:32:04.029Z,28.45
2022-09-06T14:34:32.652Z,27.82
2022-09-06T14:37:01.756Z,27.33
2022-09-06T14:39:29.820Z,27.25
2022-09-06T14:41:57.723Z,27.46
2022-09-06T14:44:25.952Z,27.83
2022-09-06T14:46:54.673Z,28.79
2022-09-06T14:49:22.424Z,28.66
2022-09-06T14:51:50.239Z,28.16
2022-09-06T14:54:24.171Z,28.17
2022-09-06T14:56:55.070Z,27.54
2022-09-06T14:59:22.908Z,27.89
2022-09-06T15:01:50.683Z,27.93
2022-09-06T15:04:19.026Z,27.60
2022-09-06T15:06:47.948Z,28.24
2022-09-06T15:09:16.372Z,27.95
2022-09-06T15:11:48.287Z,28.11
2022-09-06T15:14:18.753Z,28.42
2022-09-06T15:16:48.968Z,28.33
2022-09-06T15:19:20.767Z,28.73
2022-09-06T15:21:48.823Z,28.36
2022-09-06T15:24:16.969Z,28.64
2022-09-06T15:26:46.067Z,29.22
2022-09-06T15:29:15.235Z,28.82
2022-09-06T15:31:43.729Z,29.22
2022-09-06T15:34:12.391Z,29.54
2022-09-06T15:36:40.180Z,29.94
2022-09-06T15:39:07.900Z,30.00
2022-09-06T15:41:37.325Z,30.47
2022-09-06T15:44:09.481Z,30.62
2022-09-06T15:46:46.273Z,30.91
2022-09-06T15:49:18.157Z,31.19
2022-09-06T15:51:47.129Z,31.12
2022-09-06T15:54:17.578Z,32.12
2022-09-06T15:56:44.729Z,31.68
2022-09-06T15:59:14.517Z,31.52
2022-09-06T16:01:42.733Z,31.73
2022-09-06T16:04:11.131Z,32.22
2022-09-06T16:06:42.753Z,32.34
2022-09-06T16:09:14.381Z,32.35
2022-09-06T16:11:43.533Z,32.62
2022-09-06T16:14:17.780Z,32.58
2022-09-06T16:16:51.305Z,32.54
2022-09-06T16:19:20.127Z,32.60
2022-09-06T16:22:00.724Z,32.80
2022-09-06T16:24:31.076Z,33.09
2022-09-06T16:26:59.367Z,33.00
2022-09-06T16:29:28.766Z,33.27
2022-09-06T16:32:00.588Z,33.14
2022-09-06T16:34:28.682Z,33.28
2022-09-06T16:36:57.238Z,33.35
2022-09-06T16:39:25.130Z,33.92
2022-09-06T16:41:53.067Z,34.17
2022-09-06T16:44:20.907Z,34.74
2022-09-06T16:46:50.877Z,34.93
2022-09-06T16:49:19.573Z,35.45
2022-09-06T16:51:48.353Z,35.63
2022-09-06T16:54:16.583Z,35.49
2022-09-06T16:56:44.829Z,35.82
2022-09-06T16:59:15.105Z,35.87
2022-09-06T17:01:43.495Z,36.31
2022-09-06T17:04:13.957Z,36.67
2022-09-06T17:06:44.576Z,36.38
2022-09-06T17:09:14.126Z,36.89
2022-09-06T17:11:42.899Z,37.57
2022-09-06T17:14:10.790Z,37.66
2022-09-06T17:16:56.607Z,37.79
2022-09-06T17:19:26.950Z,37.93
2022-09-06T17:21:55.079Z,38.62
2022-09-06T17:24:23.048Z,38.28
2022-09-06T17:26:51.103Z,38.47
2022-09-06T17:29:19.606Z,39.01
2022-09-06T17:31:48.171Z,38.94
2022-09-06T17:34:16.667Z,39.66
2022-09-06T17:36:46.127Z,39.85
2022-09-06T17:39:15.737Z,39.55
2022-09-06T17:41:45.774Z,39.90
2022-09-06T17:44:16.002Z,39.59
2022-09-06T17:47:02.793Z,39.47
2022-09-06T17:49:32.084Z,39.73
2022-09-06T17:52:01.357Z,39.89
2022-09-06T17:54:29.804Z,39.60
2022-09-06T17:56:57.886Z,39.67
2022-09-06T17:59:25.832Z,39.51
2022-09-06T18:01:53.716Z,39.23
2022-09-06T18:04:21.631Z,39.79
2022-09-06T18:06:49.804Z,39.45
2022-09-06T18:09:19.127Z,39.57
2022-09-06T18:11:47.407Z,39.07
2022-09-06T18:14:29.205Z,38.70
2022-09-06T18:16:57.137Z,38.36
2022-09-06T18:19:26.242Z,37.90
2022-09-06T18:21:55.177Z,37.31
2022-09-06T18:24:24.664Z,37.08
2022-09-06T18:26:52.825Z,36.98
2022-09-06T18:29:20.929Z,36.69
2022-09-06T18:31:49.096Z,36.98
2022-09-06T18:34:17.067Z,36.74
2022-09-06T18:36:45.539Z,37.05
2022-09-06T18:39:13.691Z,36.89
2022-09-06T18:42:01.919Z,36.81
2022-09-06T18:44:32.615Z,37.04
2022-09-06T18:47:02.768Z,36.75
2022-09-06T18:49:31.186Z,36.78
2022-09-06T18:51:59.342Z,36.67
2022-09-06T18:54:27.799Z,37.00
2022-09-06T18:56:57.223Z,36.93
2022-09-06T18:59:25.428Z,37.01
2022-09-06T19:01:55.015Z,37.15
2022-09-06T19:04:23.744Z,37.21
2022-09-06T19:06:52.158Z,37.01
2022-09-06T19:09:21.351Z,36.97
2022-09-06T19:11:52.718Z,37.15
2022-09-06T19:14:22.373Z,37.22
2022-09-06T19:16:51.981Z,37.44
2022-09-06T19:19:21.595Z,37.19
2022-09-06T19:21:49.958Z,37.54
2022-09-06T19:24:22.791Z,37.70
2022-09-06T19:26:53.286Z,37.69
2022-09-06T19:29:22.990Z,37.80
2022-09-06T19:31:52.405Z,37.92
2022-09-06T19:34:20.668Z,38.12
2022-09-06T19:36:50.242Z,38.43
2022-09-06T19:39:19.105Z,38.72
2022-09-06T19:41:48.198Z,38.87
2022-09-06T19:44:20.866Z,38.98
2022-09-06T19:46:52.214Z,38.92
2022-09-06T19:49:20.942Z,39.06
2022-09-06T19:51:51.542Z,38.94
2022-09-06T19:54:19.821Z,38.98
2022-09-06T19:56:51.345Z,39.13
2022-09-06T19:59:23.964Z,39.72
2022-09-06T20:02:11.040Z,40.12
2022-09-06T20:04:43.767Z,40.32
2022-09-06T20:07:12.319Z,40.12
2022-09-06T20:09:40.394Z,40.06
2022-09-06T20:12:09.552Z,40.17
2022-09-06T20:14:37.899Z,40.36
2022-09-06T20:17:32.314Z,40.80
2022-09-06T20:19:56.703Z,40.50
2022-09-06T20:22:25.266Z,40.67
2022-09-06T20:24:54.961Z,40.86
2022-09-06T20:27:23.665Z,41.01
2022-09-06T20:29:52.691Z,41.29
2022-09-06T20:32:22.899Z,41.60
2022-09-06T20:34:52.847Z,41.99
2022-09-06T20:37:21.127Z,42.12
2022-09-06T20:39:49.017Z,42.61
2022-09-06T20:42:17.136Z,43.31
2022-09-06T20:44:45.367Z,43.09
2022-09-06T20:47:15.592Z,43.26
2022-09-06T20:49:44.988Z,43.76
2022-09-06T20:52:13.036Z,43.36
2022-09-06T20:54:41.160Z,43.32
2022-09-06T20:57:09.257Z,43.53
2022-09-06T20:59:37.339Z,43.42
2022-09-06T21:02:05.740Z,43.49
2022-09-06T21:04:33.647Z,43.88
2022-09-06T21:07:03.454Z,43.88
2022-09-06T21:09:32.273Z,43.60
2022-09-06T21:12:00.227Z,44.10
2022-09-06T21:14:28.362Z,44.37
2022-09-06T21:16:56.317Z,44.51
2022-09-06T21:19:25.440Z,44.43
2022-09-06T21:21:53.562Z,44.27
2022-09-06T21:24:23.601Z,44.70
2022-09-06T21:26:51.801Z,44.94
2022-09-06T21:29:19.578Z,44.91
2022-09-06T21:31:48.743Z,44.83
2022-09-06T21:34:17.412Z,44.85
2022-09-06T21:36:45.604Z,44.94
2022-09-06T21:39:13.929Z,44.87
2022-09-06T21:41:43.998Z,45.20
2022-09-06T21:44:12.292Z,45.08
2022-09-06T21:46:41.222Z,45.18
2022-09-06T21:49:10.955Z,44.90
2022-09-06T21:51:39.735Z,45.19
2022-09-06T21:54:07.828Z,45.25
2022-09-06T21:56:36.908Z,45.39
2022-09-06T21:59:06.747Z,45.43
2022-09-06T22:01:36.161Z,45.44
2022-09-06T22:04:06.020Z,45.54
2022-09-06T22:06:35.593Z,46.12
2022-09-06T22:09:06.002Z,46.21
2022-09-06T22:11:35.228Z,46.54
2022-09-06T22:14:07.321Z,46.74
2022-09-06T22:16:37.400Z,47.00
2022-09-06T22:19:06.221Z,46.99
2022-09-06T22:21:34.910Z,47.40
2022-09-06T22:24:04.903Z,47.95
2022-09-06T22:26:34.891Z,47.79
2022-09-06T22:29:04.385Z,48.08
2022-09-06T22:31:33.661Z,48.45
2022-09-06T22:34:03.393Z,48.19
2022-09-06T22:36:31.436Z,48.33
2022-09-06T22:39:00.039Z,48.67
2022-09-06T22:41:29.348Z,48.90
2022-09-06T22:43:57.606Z,49.01
2022-09-06T22:46:25.861Z,49.12
2022-09-06T22:48:54.165Z,49.53
2022-09-06T22:51:23.755Z,49.72
2022-09-06T22:53:51.683Z,49.46
2022-09-06T22:56:19.770Z,49.86
2022-09-06T22:58:47.828Z,49.79
2022-09-06T23:01:18.093Z,49.74
2022-09-06T23:03:46.878Z,49.69
2022-09-06T23:06:15.111Z,49.80
2022-09-06T23:08:44.515Z,49.89
2022-09-06T23:11:14.406Z,50.06
2022-09-06T23:13:43.676Z,50.46
2022-09-06T23:16:15.407Z,50.53
2022-09-06T23:18:43.383Z,50.38
2022-09-06T23:21:13.538Z,50.58
2022-09-06T23:23:44.433Z,51.09
2022-09-06T23:26:14.936Z,51.31
2022-09-06T23:28:43.604Z,50.96
2022-09-06T23:31:12.911Z,51.17
2022-09-06T23:33:41.763Z,52.41
2022-09-06T23:36:14.581Z,52.58
2022-09-06T23:38:44.679Z,52.79
2022-09-06T23:41:13.366Z,53.53
2022-09-06T23:43:42.741Z,52.83
2022-09-06T23:46:11.715Z,54.15
2022-09-06T23:48:39.960Z,53.79
2022-09-06T23:51:08.238Z,53.57
2022-09-06T23:53:36.438Z,53.34
2022-09-06T23:56:06.878Z,53.91
2022-09-06T23:58:34.987Z,54.52
